CheckWX is a tool to help pilots better visualize weather data.  It is not intended as a substitute for an official pre-flight weather briefing.

21:57:12 UTC

KBAM METAR
Battle Mountain Airport
Battle Mountain, Nevada, USA
Current

22 mins ago

KBAM 232135Z AUTO 23008KT 10SM OVC070 03/M08 A3018 RMK AO1
Observed
Feb-23 @ 21:35 UTC
Wind
  • 230° at 8 KTS
Visibility
10 SM
Flight Rules
VFR
Cloud Levels
  • Overcast at 7,000' AGL
Temperature
C / 37°F
Dewpoint
-8°C / 18°F
Humidity
45%
Altimeter
30.18" Hg
Pressure
1022.02 hPa
Previous

42 mins ago

KBAM 232115Z AUTO 22006KT 10SM BKN055 OVC065 03/M08 A3018 RMK AO1
Observed
Feb-23 @ 21:15 UTC
Wind
  • 220° at 6 KTS
Visibility
10 SM
Flight Rules
VFR
Cloud Levels
  • Broken at 5,500' AGL
  • Overcast at 6,500' AGL
Temperature
C / 37°F
Dewpoint
-8°C / 18°F
Humidity
45%
Altimeter
30.18" Hg
Pressure
1022.02 hPa
Previous

1 hour ago

KBAM 232055Z AUTO 24006KT 10SM OVC055 03/M08 A3018 RMK AO1
Observed
Feb-23 @ 20:55 UTC
Wind
  • 240° at 6 KTS
Visibility
10 SM
Flight Rules
VFR
Cloud Levels
  • Overcast at 5,500' AGL
Temperature
C / 37°F
Dewpoint
-8°C / 18°F
Humidity
45%
Altimeter
30.18" Hg
Pressure
1022.02 hPa